Tintern, United Kingdom
Current Conditions -  °F | °C
As of 1:20 AM on Tuesday 21 Oct 2014 (Local Time) from EGGD Reporting Station
Broken Clouds Broken Clouds  
Wind Chill: 54°   Ceiling: 2700
Heat Index: 54°   Visibility: 6mi
Dew Point: 50°   Wind: 16mph
Humidity: 88%   Direction: 210°SSW
Pressure: 29.77"   Gusts: NA
Location:  51.7°N, 2.68°W
Report Text: EGGD 210020Z 21014KT 9999 SCT020 BKN027 12/10 Q1008
Loading
Personal Weather Stations






























Interactive Weather Map
Tropical Storm Tracking
New forecast layout! Learn more

10-Day Weather Forecast

Advertisements
Track Severe Weather on mobile